sensor_id;sensor_type;location;lat;lon;timestamp;P1;durP1;ratioP1;P2;durP2;ratioP2
20794;SDS011;28087;-33.874;151.240;2023-09-12T00:02:53;18.33;;;14.25;;
20794;SDS011;28087;-33.874;151.240;2023-09-12T00:06:01;19.55;;;14.13;;
20794;SDS011;28087;-33.874;151.240;2023-09-12T00:09:15;18.38;;;12.38;;
20794;SDS011;28087;-33.874;151.240;2023-09-12T00:12:25;13.85;;;9.82;;
20794;SDS011;28087;-33.874;151.240;2023-09-12T00:15:33;12.90;;;8.90;;
20794;SDS011;28087;-33.874;151.240;2023-09-12T00:18:41;12.05;;;8.93;;
20794;SDS011;28087;-33.874;151.240;2023-09-12T00:21:50;11.73;;;9.05;;
20794;SDS011;28087;-33.874;151.240;2023-09-12T00:25:08;12.38;;;8.10;;
20794;SDS011;28087;-33.874;151.240;2023-09-12T00:28:15;14.38;;;7.75;;
20794;SDS011;28087;-33.874;151.240;2023-09-12T00:31:22;13.60;;;9.50;;
20794;SDS011;28087;-33.874;151.240;2023-09-12T00:34:30;12.00;;;9.13;;
20794;SDS011;28087;-33.874;151.240;2023-09-12T00:37:37;12.80;;;8.88;;
20794;SDS011;28087;-33.874;151.240;2023-09-12T00:40:49;11.55;;;9.43;;
20794;SDS011;28087;-33.874;151.240;2023-09-12T00:43:57;11.52;;;9.25;;
20794;SDS011;28087;-33.874;151.240;2023-09-12T00:47:17;16.27;;;10.98;;
20794;SDS011;28087;-33.874;151.240;2023-09-12T00:50:26;13.98;;;10.60;;
20794;SDS011;28087;-33.874;151.240;2023-09-12T00:53:32;14.23;;;10.77;;
20794;SDS011;28087;-33.874;151.240;2023-09-12T00:56:44;14.00;;;10.48;;
20794;SDS011;28087;-33.874;151.240;2023-09-12T00:59:52;14.20;;;8.65;;
20794;SDS011;28087;-33.874;151.240;2023-09-12T01:03:07;10.77;;;8.13;;
20794;SDS011;28087;-33.874;151.240;2023-09-12T01:06:15;11.77;;;7.95;;
20794;SDS011;28087;-33.874;151.240;2023-09-12T01:09:31;14.93;;;9.00;;
20794;SDS011;28087;-33.874;151.240;2023-09-12T01:12:41;11.52;;;8.38;;
20794;SDS011;28087;-33.874;151.240;2023-09-12T01:15:49;11.75;;;8.70;;
20794;SDS011;28087;-33.874;151.240;2023-09-12T01:18:59;12.57;;;8.30;;
20794;SDS011;28087;-33.874;151.240;2023-09-12T01:22:23;10.48;;;7.60;;
20794;SDS011;28087;-33.874;151.240;2023-09-12T01:25:54;9.43;;;7.30;;
20794;SDS011;28087;-33.874;151.240;2023-09-12T01:29:26;11.75;;;8.32;;
20794;SDS011;28087;-33.874;151.240;2023-09-12T01:32:38;11.50;;;7.97;;
20794;SDS011;28087;-33.874;151.240;2023-09-12T01:35:46;10.68;;;8.52;;
20794;SDS011;28087;-33.874;151.240;2023-09-12T01:38:54;9.95;;;7.82;;
20794;SDS011;28087;-33.874;151.240;2023-09-12T01:41:55;10.57;;;8.32;;
20794;SDS011;28087;-33.874;151.240;2023-09-12T01:45:13;10.13;;;7.72;;
20794;SDS011;28087;-33.874;151.240;2023-09-12T01:48:24;9.88;;;7.95;;
20794;SDS011;28087;-33.874;151.240;2023-09-12T01:51:35;10.93;;;7.95;;
20794;SDS011;28087;-33.874;151.240;2023-09-12T01:54:45;11.65;;;7.78;;
20794;SDS011;28087;-33.874;151.240;2023-09-12T01:57:57;12.75;;;8.15;;
20794;SDS011;28087;-33.874;151.240;2023-09-12T02:01:07;13.65;;;8.57;;
20794;SDS011;28087;-33.874;151.240;2023-09-12T02:04:19;10.48;;;8.43;;
20794;SDS011;28087;-33.874;151.240;2023-09-12T02:07:27;13.27;;;8.48;;
20794;SDS011;28087;-33.874;151.240;2023-09-12T02:10:48;12.68;;;8.50;;
20794;SDS011;28087;-33.874;151.240;2023-09-12T02:13:55;10.70;;;8.30;;
20794;SDS011;28087;-33.874;151.240;2023-09-12T02:17:03;12.93;;;8.27;;
20794;SDS011;28087;-33.874;151.240;2023-09-12T02:20:14;13.75;;;7.93;;
20794;SDS011;28087;-33.874;151.240;2023-09-12T02:23:26;12.63;;;8.40;;
20794;SDS011;28087;-33.874;151.240;2023-09-12T02:26:37;14.57;;;9.75;;
20794;SDS011;28087;-33.874;151.240;2023-09-12T02:29:45;14.27;;;9.90;;
20794;SDS011;28087;-33.874;151.240;2023-09-12T02:32:55;18.13;;;10.20;;
20794;SDS011;28087;-33.874;151.240;2023-09-12T02:36:05;18.00;;;10.70;;
20794;SDS011;28087;-33.874;151.240;2023-09-12T02:39:12;16.75;;;11.98;;
20794;SDS011;28087;-33.874;151.240;2023-09-12T02:42:20;15.55;;;11.27;;
20794;SDS011;28087;-33.874;151.240;2023-09-12T02:45:28;13.98;;;10.48;;
20794;SDS011;28087;-33.874;151.240;2023-09-12T02:48:39;17.88;;;10.63;;
20794;SDS011;28087;-33.874;151.240;2023-09-12T02:51:48;16.42;;;11.10;;
20794;SDS011;28087;-33.874;151.240;2023-09-12T02:55:01;16.27;;;10.77;;
20794;SDS011;28087;-33.874;151.240;2023-09-12T02:58:13;14.93;;;10.70;;
20794;SDS011;28087;-33.874;151.240;2023-09-12T03:01:36;15.80;;;11.30;;
20794;SDS011;28087;-33.874;151.240;2023-09-12T03:04:49;16.88;;;11.80;;
20794;SDS011;28087;-33.874;151.240;2023-09-12T03:08:04;14.57;;;11.30;;
20794;SDS011;28087;-33.874;151.240;2023-09-12T03:11:15;16.20;;;11.25;;
20794;SDS011;28087;-33.874;151.240;2023-09-12T03:14:27;15.15;;;11.40;;
20794;SDS011;28087;-33.874;151.240;2023-09-12T03:17:41;13.63;;;11.10;;
20794;SDS011;28087;-33.874;151.240;2023-09-12T03:20:55;16.13;;;11.43;;
20794;SDS011;28087;-33.874;151.240;2023-09-12T03:24:04;18.20;;;11.98;;
20794;SDS011;28087;-33.874;151.240;2023-09-12T03:27:15;17.30;;;11.10;;
20794;SDS011;28087;-33.874;151.240;2023-09-12T03:30:22;14.32;;;10.02;;
20794;SDS011;28087;-33.874;151.240;2023-09-12T03:33:31;16.52;;;10.60;;
20794;SDS011;28087;-33.874;151.240;2023-09-12T03:36:41;15.13;;;10.50;;
20794;SDS011;28087;-33.874;151.240;2023-09-12T03:39:47;13.02;;;9.73;;
20794;SDS011;28087;-33.874;151.240;2023-09-12T03:42:55;13.68;;;9.23;;
20794;SDS011;28087;-33.874;151.240;2023-09-12T03:46:03;17.98;;;10.70;;
20794;SDS011;28087;-33.874;151.240;2023-09-12T03:49:10;14.68;;;10.93;;
20794;SDS011;28087;-33.874;151.240;2023-09-12T03:52:20;16.98;;;10.68;;
20794;SDS011;28087;-33.874;151.240;2023-09-12T03:55:33;18.20;;;11.73;;
20794;SDS011;28087;-33.874;151.240;2023-09-12T03:58:40;16.77;;;11.88;;
20794;SDS011;28087;-33.874;151.240;2023-09-12T04:01:50;16.48;;;11.65;;
20794;SDS011;28087;-33.874;151.240;2023-09-12T04:05:00;16.25;;;12.07;;
20794;SDS011;28087;-33.874;151.240;2023-09-12T04:08:12;16.10;;;11.85;;
20794;SDS011;28087;-33.874;151.240;2023-09-12T04:11:18;17.83;;;12.15;;
20794;SDS011;28087;-33.874;151.240;2023-09-12T04:14:35;13.65;;;11.30;;
20794;SDS011;28087;-33.874;151.240;2023-09-12T04:17:41;17.63;;;12.00;;
20794;SDS011;28087;-33.874;151.240;2023-09-12T04:20:50;19.50;;;12.00;;
20794;SDS011;28087;-33.874;151.240;2023-09-12T04:23:59;16.00;;;12.18;;
20794;SDS011;28087;-33.874;151.240;2023-09-12T04:27:05;13.88;;;11.55;;
20794;SDS011;28087;-33.874;151.240;2023-09-12T04:30:14;14.50;;;11.18;;
20794;SDS011;28087;-33.874;151.240;2023-09-12T04:33:21;18.13;;;12.15;;
20794;SDS011;28087;-33.874;151.240;2023-09-12T04:36:30;16.73;;;11.95;;
20794;SDS011;28087;-33.874;151.240;2023-09-12T04:39:42;18.50;;;12.75;;
20794;SDS011;28087;-33.874;151.240;2023-09-12T04:42:50;17.15;;;11.95;;
20794;SDS011;28087;-33.874;151.240;2023-09-12T04:45:56;15.52;;;11.80;;
20794;SDS011;28087;-33.874;151.240;2023-09-12T04:49:05;17.00;;;11.10;;
20794;SDS011;28087;-33.874;151.240;2023-09-12T04:52:11;17.38;;;11.40;;
20794;SDS011;28087;-33.874;151.240;2023-09-12T04:55:22;15.18;;;11.30;;
20794;SDS011;28087;-33.874;151.240;2023-09-12T04:58:31;18.27;;;11.50;;
20794;SDS011;28087;-33.874;151.240;2023-09-12T05:01:37;13.73;;;10.68;;
20794;SDS011;28087;-33.874;151.240;2023-09-12T05:04:44;14.80;;;10.88;;
20794;SDS011;28087;-33.874;151.240;2023-09-12T05:07:51;15.23;;;10.93;;
20794;SDS011;28087;-33.874;151.240;2023-09-12T05:11:03;17.08;;;11.38;;
20794;SDS011;28087;-33.874;151.240;2023-09-12T05:14:11;14.43;;;10.40;;
20794;SDS011;28087;-33.874;151.240;2023-09-12T05:17:18;14.65;;;10.60;;
20794;SDS011;28087;-33.874;151.240;2023-09-12T05:20:25;19.00;;;10.98;;
20794;SDS011;28087;-33.874;151.240;2023-09-12T05:23:32;15.27;;;10.55;;
20794;SDS011;28087;-33.874;151.240;2023-09-12T05:26:40;13.65;;;10.20;;
20794;SDS011;28087;-33.874;151.240;2023-09-12T05:29:48;15.90;;;10.85;;
20794;SDS011;28087;-33.874;151.240;2023-09-12T05:32:56;13.88;;;10.45;;
20794;SDS011;28087;-33.874;151.240;2023-09-12T05:36:06;15.13;;;10.25;;
20794;SDS011;28087;-33.874;151.240;2023-09-12T05:39:17;14.02;;;9.95;;
20794;SDS011;28087;-33.874;151.240;2023-09-12T05:42:26;15.43;;;10.57;;
20794;SDS011;28087;-33.874;151.240;2023-09-12T05:45:34;13.45;;;10.23;;
20794;SDS011;28087;-33.874;151.240;2023-09-12T05:48:41;13.65;;;10.55;;
20794;SDS011;28087;-33.874;151.240;2023-09-12T05:51:49;13.20;;;9.90;;
20794;SDS011;28087;-33.874;151.240;2023-09-12T05:54:58;13.95;;;9.18;;
20794;SDS011;28087;-33.874;151.240;2023-09-12T05:58:07;15.55;;;9.80;;
20794;SDS011;28087;-33.874;151.240;2023-09-12T06:01:14;15.93;;;9.43;;
20794;SDS011;28087;-33.874;151.240;2023-09-12T06:04:22;12.05;;;9.05;;
20794;SDS011;28087;-33.874;151.240;2023-09-12T06:07:30;15.95;;;10.00;;
20794;SDS011;28087;-33.874;151.240;2023-09-12T06:10:41;14.88;;;9.07;;
20794;SDS011;28087;-33.874;151.240;2023-09-12T06:13:52;13.55;;;9.70;;
20794;SDS011;28087;-33.874;151.240;2023-09-12T06:16:59;12.43;;;9.05;;
20794;SDS011;28087;-33.874;151.240;2023-09-12T06:20:06;13.45;;;10.15;;
20794;SDS011;28087;-33.874;151.240;2023-09-12T06:23:13;12.23;;;8.88;;
20794;SDS011;28087;-33.874;151.240;2023-09-12T06:26:20;20.83;;;14.85;;
20794;SDS011;28087;-33.874;151.240;2023-09-12T06:29:29;21.95;;;15.40;;
20794;SDS011;28087;-33.874;151.240;2023-09-12T06:32:37;22.05;;;16.55;;
20794;SDS011;28087;-33.874;151.240;2023-09-12T06:35:48;16.23;;;11.02;;
20794;SDS011;28087;-33.874;151.240;2023-09-12T06:38:54;22.73;;;17.98;;
20794;SDS011;28087;-33.874;151.240;2023-09-12T06:42:03;14.93;;;10.88;;
20794;SDS011;28087;-33.874;151.240;2023-09-12T06:45:12;23.50;;;17.25;;
20794;SDS011;28087;-33.874;151.240;2023-09-12T06:48:19;23.25;;;15.02;;
20794;SDS011;28087;-33.874;151.240;2023-09-12T06:51:27;15.15;;;10.60;;
20794;SDS011;28087;-33.874;151.240;2023-09-12T06:54:35;15.45;;;10.90;;
20794;SDS011;28087;-33.874;151.240;2023-09-12T06:57:44;16.08;;;9.48;;
20794;SDS011;28087;-33.874;151.240;2023-09-12T07:00:53;17.45;;;12.52;;
20794;SDS011;28087;-33.874;151.240;2023-09-12T07:04:02;13.65;;;10.20;;
20794;SDS011;28087;-33.874;151.240;2023-09-12T07:07:10;13.57;;;9.98;;
20794;SDS011;28087;-33.874;151.240;2023-09-12T07:10:18;10.75;;;8.23;;
20794;SDS011;28087;-33.874;151.240;2023-09-12T07:13:25;10.10;;;7.70;;
20794;SDS011;28087;-33.874;151.240;2023-09-12T07:16:36;12.05;;;7.85;;
20794;SDS011;28087;-33.874;151.240;2023-09-12T07:19:43;13.68;;;7.65;;
20794;SDS011;28087;-33.874;151.240;2023-09-12T07:22:53;11.95;;;7.05;;
20794;SDS011;28087;-33.874;151.240;2023-09-12T07:26:02;11.63;;;8.45;;
20794;SDS011;28087;-33.874;151.240;2023-09-12T07:29:12;9.60;;;7.40;;
20794;SDS011;28087;-33.874;151.240;2023-09-12T07:32:24;9.90;;;7.40;;
20794;SDS011;28087;-33.874;151.240;2023-09-12T07:35:44;11.23;;;7.32;;
20794;SDS011;28087;-33.874;151.240;2023-09-12T07:38:49;9.48;;;7.53;;
20794;SDS011;28087;-33.874;151.240;2023-09-12T07:41:57;10.18;;;7.38;;
20794;SDS011;28087;-33.874;151.240;2023-09-12T07:45:06;11.30;;;7.72;;
20794;SDS011;28087;-33.874;151.240;2023-09-12T07:48:18;12.38;;;7.82;;
20794;SDS011;28087;-33.874;151.240;2023-09-12T07:51:29;10.93;;;7.57;;
20794;SDS011;28087;-33.874;151.240;2023-09-12T07:54:31;11.48;;;8.07;;
20794;SDS011;28087;-33.874;151.240;2023-09-12T07:57:39;12.93;;;7.57;;
20794;SDS011;28087;-33.874;151.240;2023-09-12T08:00:45;12.15;;;7.57;;
20794;SDS011;28087;-33.874;151.240;2023-09-12T08:03:54;9.65;;;7.18;;
20794;SDS011;28087;-33.874;151.240;2023-09-12T08:07:02;11.82;;;7.50;;
20794;SDS011;28087;-33.874;151.240;2023-09-12T08:10:10;11.35;;;7.35;;
20794;SDS011;28087;-33.874;151.240;2023-09-12T08:13:16;10.35;;;7.30;;
20794;SDS011;28087;-33.874;151.240;2023-09-12T08:16:25;9.60;;;6.93;;
20794;SDS011;28087;-33.874;151.240;2023-09-12T08:19:35;12.40;;;7.15;;
20794;SDS011;28087;-33.874;151.240;2023-09-12T08:22:43;11.65;;;6.75;;
20794;SDS011;28087;-33.874;151.240;2023-09-12T08:25:53;11.05;;;7.05;;
20794;SDS011;28087;-33.874;151.240;2023-09-12T08:28:59;8.75;;;6.90;;
20794;SDS011;28087;-33.874;151.240;2023-09-12T08:32:07;9.43;;;6.20;;
20794;SDS011;28087;-33.874;151.240;2023-09-12T08:35:18;11.25;;;7.03;;
20794;SDS011;28087;-33.874;151.240;2023-09-12T08:38:25;10.95;;;7.47;;
20794;SDS011;28087;-33.874;151.240;2023-09-12T08:41:33;11.75;;;7.60;;
20794;SDS011;28087;-33.874;151.240;2023-09-12T08:44:43;12.98;;;7.63;;
20794;SDS011;28087;-33.874;151.240;2023-09-12T08:47:50;11.90;;;7.72;;
20794;SDS011;28087;-33.874;151.240;2023-09-12T08:51:00;10.30;;;7.60;;
20794;SDS011;28087;-33.874;151.240;2023-09-12T08:54:08;9.57;;;7.30;;
20794;SDS011;28087;-33.874;151.240;2023-09-12T08:57:16;12.60;;;7.50;;
20794;SDS011;28087;-33.874;151.240;2023-09-12T09:00:28;10.65;;;7.47;;
20794;SDS011;28087;-33.874;151.240;2023-09-12T09:03:36;12.70;;;7.47;;
20794;SDS011;28087;-33.874;151.240;2023-09-12T09:06:48;12.73;;;8.27;;
20794;SDS011;28087;-33.874;151.240;2023-09-12T09:09:55;12.30;;;7.03;;
20794;SDS011;28087;-33.874;151.240;2023-09-12T09:13:03;12.07;;;8.25;;
20794;SDS011;28087;-33.874;151.240;2023-09-12T09:16:12;21.27;;;15.35;;
20794;SDS011;28087;-33.874;151.240;2023-09-12T09:19:20;14.25;;;7.78;;
20794;SDS011;28087;-33.874;151.240;2023-09-12T09:22:29;10.73;;;8.18;;
20794;SDS011;28087;-33.874;151.240;2023-09-12T09:25:35;8.73;;;5.80;;
20794;SDS011;28087;-33.874;151.240;2023-09-12T09:28:43;14.10;;;7.82;;
20794;SDS011;28087;-33.874;151.240;2023-09-12T09:31:52;9.82;;;6.50;;
20794;SDS011;28087;-33.874;151.240;2023-09-12T09:35:01;10.48;;;7.40;;
20794;SDS011;28087;-33.874;151.240;2023-09-12T09:38:10;10.15;;;6.57;;
20794;SDS011;28087;-33.874;151.240;2023-09-12T09:41:16;12.38;;;6.75;;
20794;SDS011;28087;-33.874;151.240;2023-09-12T09:44:26;9.57;;;6.60;;
20794;SDS011;28087;-33.874;151.240;2023-09-12T09:47:34;8.80;;;5.85;;
20794;SDS011;28087;-33.874;151.240;2023-09-12T09:50:43;11.82;;;6.70;;
20794;SDS011;28087;-33.874;151.240;2023-09-12T09:53:53;9.88;;;6.45;;
20794;SDS011;28087;-33.874;151.240;2023-09-12T09:56:58;12.73;;;6.53;;
20794;SDS011;28087;-33.874;151.240;2023-09-12T10:00:07;12.35;;;6.22;;
20794;SDS011;28087;-33.874;151.240;2023-09-12T10:03:14;10.43;;;5.55;;
20794;SDS011;28087;-33.874;151.240;2023-09-12T10:06:25;10.20;;;6.60;;
20794;SDS011;28087;-33.874;151.240;2023-09-12T10:09:34;9.50;;;6.65;;
20794;SDS011;28087;-33.874;151.240;2023-09-12T10:12:42;9.73;;;5.72;;
20794;SDS011;28087;-33.874;151.240;2023-09-12T10:15:49;10.52;;;6.43;;
20794;SDS011;28087;-33.874;151.240;2023-09-12T10:18:58;10.05;;;6.32;;
20794;SDS011;28087;-33.874;151.240;2023-09-12T10:22:09;10.45;;;5.90;;
20794;SDS011;28087;-33.874;151.240;2023-09-12T10:25:21;11.43;;;6.40;;
20794;SDS011;28087;-33.874;151.240;2023-09-12T10:28:29;10.15;;;6.15;;
20794;SDS011;28087;-33.874;151.240;2023-09-12T10:31:37;14.52;;;6.53;;
20794;SDS011;28087;-33.874;151.240;2023-09-12T10:34:45;11.85;;;6.93;;
20794;SDS011;28087;-33.874;151.240;2023-09-12T10:37:52;11.90;;;6.63;;
20794;SDS011;28087;-33.874;151.240;2023-09-12T10:41:05;12.88;;;6.60;;
20794;SDS011;28087;-33.874;151.240;2023-09-12T10:44:14;14.43;;;7.35;;
20794;SDS011;28087;-33.874;151.240;2023-09-12T10:47:22;17.40;;;7.50;;
20794;SDS011;28087;-33.874;151.240;2023-09-12T10:50:29;17.17;;;7.70;;
20794;SDS011;28087;-33.874;151.240;2023-09-12T10:53:37;14.10;;;7.60;;
20794;SDS011;28087;-33.874;151.240;2023-09-12T11:00:14;16.30;;;7.57;;
20794;SDS011;28087;-33.874;151.240;2023-09-12T11:03:38;17.80;;;7.97;;
20794;SDS011;28087;-33.874;151.240;2023-09-12T11:06:48;15.85;;;7.53;;
20794;SDS011;28087;-33.874;151.240;2023-09-12T11:13:18;14.43;;;7.97;;
20794;SDS011;28087;-33.874;151.240;2023-09-12T11:16:29;12.60;;;7.78;;
20794;SDS011;28087;-33.874;151.240;2023-09-12T11:19:43;15.00;;;8.15;;
20794;SDS011;28087;-33.874;151.240;2023-09-12T11:22:54;19.02;;;8.20;;
20794;SDS011;28087;-33.874;151.240;2023-09-12T11:26:14;17.23;;;8.85;;
20794;SDS011;28087;-33.874;151.240;2023-09-12T11:29:21;16.45;;;8.52;;
20794;SDS011;28087;-33.874;151.240;2023-09-12T11:32:32;16.17;;;8.90;;
20794;SDS011;28087;-33.874;151.240;2023-09-12T11:35:42;17.25;;;8.63;;
20794;SDS011;28087;-33.874;151.240;2023-09-12T11:38:49;12.70;;;8.77;;
20794;SDS011;28087;-33.874;151.240;2023-09-12T11:41:55;14.70;;;9.00;;
20794;SDS011;28087;-33.874;151.240;2023-09-12T11:45:07;10.90;;;8.48;;
20794;SDS011;28087;-33.874;151.240;2023-09-12T11:48:15;16.02;;;9.25;;
20794;SDS011;28087;-33.874;151.240;2023-09-12T11:51:23;16.42;;;9.73;;
20794;SDS011;28087;-33.874;151.240;2023-09-12T11:54:30;14.02;;;8.70;;
20794;SDS011;28087;-33.874;151.240;2023-09-12T11:57:37;13.50;;;8.65;;
20794;SDS011;28087;-33.874;151.240;2023-09-12T12:00:47;16.40;;;8.98;;
20794;SDS011;28087;-33.874;151.240;2023-09-12T12:03:58;14.20;;;8.82;;
20794;SDS011;28087;-33.874;151.240;2023-09-12T12:07:09;13.77;;;8.90;;
20794;SDS011;28087;-33.874;151.240;2023-09-12T12:10:15;11.57;;;8.80;;
20794;SDS011;28087;-33.874;151.240;2023-09-12T12:13:23;13.77;;;9.02;;
20794;SDS011;28087;-33.874;151.240;2023-09-12T12:16:30;12.48;;;8.80;;
20794;SDS011;28087;-33.874;151.240;2023-09-12T12:19:44;12.05;;;8.38;;
20794;SDS011;28087;-33.874;151.240;2023-09-12T12:22:53;13.00;;;8.45;;
20794;SDS011;28087;-33.874;151.240;2023-09-12T12:26:03;12.55;;;8.88;;
20794;SDS011;28087;-33.874;151.240;2023-09-12T12:29:09;11.48;;;8.40;;
20794;SDS011;28087;-33.874;151.240;2023-09-12T12:32:17;13.23;;;8.50;;
20794;SDS011;28087;-33.874;151.240;2023-09-12T12:35:25;11.32;;;8.38;;
20794;SDS011;28087;-33.874;151.240;2023-09-12T12:38:46;12.57;;;8.63;;
20794;SDS011;28087;-33.874;151.240;2023-09-12T12:41:54;12.50;;;8.98;;
20794;SDS011;28087;-33.874;151.240;2023-09-12T12:45:14;13.15;;;8.50;;
20794;SDS011;28087;-33.874;151.240;2023-09-12T12:48:29;12.50;;;8.20;;
20794;SDS011;28087;-33.874;151.240;2023-09-12T12:51:41;10.73;;;8.43;;
20794;SDS011;28087;-33.874;151.240;2023-09-12T12:54:50;11.68;;;8.07;;
20794;SDS011;28087;-33.874;151.240;2023-09-12T12:57:56;13.15;;;8.35;;
20794;SDS011;28087;-33.874;151.240;2023-09-12T13:01:03;10.05;;;7.72;;
20794;SDS011;28087;-33.874;151.240;2023-09-12T13:04:11;10.65;;;8.10;;
20794;SDS011;28087;-33.874;151.240;2023-09-12T13:07:22;13.90;;;8.57;;
20794;SDS011;28087;-33.874;151.240;2023-09-12T13:10:31;12.50;;;8.77;;
20794;SDS011;28087;-33.874;151.240;2023-09-12T13:13:43;11.50;;;8.30;;
20794;SDS011;28087;-33.874;151.240;2023-09-12T13:16:50;13.75;;;8.70;;
20794;SDS011;28087;-33.874;151.240;2023-09-12T13:20:01;11.80;;;8.10;;
20794;SDS011;28087;-33.874;151.240;2023-09-12T13:23:11;11.25;;;8.38;;
20794;SDS011;28087;-33.874;151.240;2023-09-12T13:26:29;15.07;;;9.13;;
20794;SDS011;28087;-33.874;151.240;2023-09-12T13:29:37;12.40;;;8.75;;
20794;SDS011;28087;-33.874;151.240;2023-09-12T13:32:48;15.52;;;9.30;;
20794;SDS011;28087;-33.874;151.240;2023-09-12T13:35:58;12.60;;;8.80;;
20794;SDS011;28087;-33.874;151.240;2023-09-12T13:39:09;11.88;;;8.85;;
20794;SDS011;28087;-33.874;151.240;2023-09-12T13:42:19;12.25;;;8.52;;
20794;SDS011;28087;-33.874;151.240;2023-09-12T13:45:28;10.93;;;8.63;;
20794;SDS011;28087;-33.874;151.240;2023-09-12T13:48:35;13.82;;;9.10;;
20794;SDS011;28087;-33.874;151.240;2023-09-12T13:51:43;10.85;;;7.90;;
20794;SDS011;28087;-33.874;151.240;2023-09-12T13:54:54;14.38;;;8.50;;
20794;SDS011;28087;-33.874;151.240;2023-09-12T13:58:05;12.98;;;9.07;;
20794;SDS011;28087;-33.874;151.240;2023-09-12T14:01:29;12.88;;;9.52;;
20794;SDS011;28087;-33.874;151.240;2023-09-12T14:04:39;12.73;;;9.20;;
20794;SDS011;28087;-33.874;151.240;2023-09-12T14:07:59;13.10;;;9.20;;
20794;SDS011;28087;-33.874;151.240;2023-09-12T14:11:10;12.52;;;9.27;;
20794;SDS011;28087;-33.874;151.240;2023-09-12T14:14:24;15.93;;;9.40;;
20794;SDS011;28087;-33.874;151.240;2023-09-12T14:17:51;13.35;;;9.57;;
20794;SDS011;28087;-33.874;151.240;2023-09-12T14:21:01;11.60;;;8.88;;
20794;SDS011;28087;-33.874;151.240;2023-09-12T14:24:08;12.38;;;9.32;;
20794;SDS011;28087;-33.874;151.240;2023-09-12T14:27:22;14.90;;;9.23;;
20794;SDS011;28087;-33.874;151.240;2023-09-12T14:30:35;15.85;;;9.63;;
20794;SDS011;28087;-33.874;151.240;2023-09-12T14:33:51;11.57;;;8.95;;
20794;SDS011;28087;-33.874;151.240;2023-09-12T14:36:59;12.77;;;9.20;;
20794;SDS011;28087;-33.874;151.240;2023-09-12T14:40:08;12.63;;;9.13;;
20794;SDS011;28087;-33.874;151.240;2023-09-12T14:43:17;14.88;;;9.57;;
20794;SDS011;28087;-33.874;151.240;2023-09-12T14:46:24;14.35;;;9.57;;
20794;SDS011;28087;-33.874;151.240;2023-09-12T14:49:32;12.00;;;9.13;;
20794;SDS011;28087;-33.874;151.240;2023-09-12T14:52:39;13.02;;;9.55;;
20794;SDS011;28087;-33.874;151.240;2023-09-12T14:55:45;13.88;;;9.40;;
20794;SDS011;28087;-33.874;151.240;2023-09-12T14:58:56;12.75;;;9.80;;
20794;SDS011;28087;-33.874;151.240;2023-09-12T15:02:05;14.38;;;10.13;;
20794;SDS011;28087;-33.874;151.240;2023-09-12T15:05:13;12.98;;;9.52;;
20794;SDS011;28087;-33.874;151.240;2023-09-12T15:08:23;12.73;;;9.82;;
20794;SDS011;28087;-33.874;151.240;2023-09-12T15:11:33;14.13;;;9.82;;
20794;SDS011;28087;-33.874;151.240;2023-09-12T15:14:42;16.63;;;10.05;;
20794;SDS011;28087;-33.874;151.240;2023-09-12T15:17:49;12.65;;;10.30;;
20794;SDS011;28087;-33.874;151.240;2023-09-12T15:20:59;14.02;;;10.35;;
20794;SDS011;28087;-33.874;151.240;2023-09-12T15:24:07;14.00;;;10.85;;
20794;SDS011;28087;-33.874;151.240;2023-09-12T15:27:15;14.10;;;10.18;;
20794;SDS011;28087;-33.874;151.240;2023-09-12T15:30:25;14.80;;;10.70;;
20794;SDS011;28087;-33.874;151.240;2023-09-12T15:33:34;15.38;;;10.65;;
20794;SDS011;28087;-33.874;151.240;2023-09-12T15:36:43;14.90;;;10.68;;
20794;SDS011;28087;-33.874;151.240;2023-09-12T15:40:06;15.32;;;10.68;;
20794;SDS011;28087;-33.874;151.240;2023-09-12T15:43:11;13.68;;;9.63;;
20794;SDS011;28087;-33.874;151.240;2023-09-12T15:46:21;14.25;;;10.63;;
20794;SDS011;28087;-33.874;151.240;2023-09-12T15:49:29;16.83;;;10.98;;
20794;SDS011;28087;-33.874;151.240;2023-09-12T15:52:36;14.13;;;10.52;;
20794;SDS011;28087;-33.874;151.240;2023-09-12T15:55:43;14.23;;;10.32;;
20794;SDS011;28087;-33.874;151.240;2023-09-12T15:58:50;13.88;;;10.68;;
20794;SDS011;28087;-33.874;151.240;2023-09-12T16:02:03;14.45;;;10.43;;
20794;SDS011;28087;-33.874;151.240;2023-09-12T16:05:09;15.40;;;10.85;;
20794;SDS011;28087;-33.874;151.240;2023-09-12T16:08:16;12.93;;;10.70;;
20794;SDS011;28087;-33.874;151.240;2023-09-12T16:11:26;16.45;;;11.23;;
20794;SDS011;28087;-33.874;151.240;2023-09-12T16:14:33;14.15;;;10.93;;
20794;SDS011;28087;-33.874;151.240;2023-09-12T16:17:44;14.15;;;11.10;;
20794;SDS011;28087;-33.874;151.240;2023-09-12T16:20:50;14.02;;;11.75;;
20794;SDS011;28087;-33.874;151.240;2023-09-12T16:23:58;13.30;;;11.00;;
20794;SDS011;28087;-33.874;151.240;2023-09-12T16:27:09;14.15;;;11.55;;
20794;SDS011;28087;-33.874;151.240;2023-09-12T16:30:17;14.82;;;11.70;;
20794;SDS011;28087;-33.874;151.240;2023-09-12T16:33:26;15.55;;;12.20;;
20794;SDS011;28087;-33.874;151.240;2023-09-12T16:36:37;15.90;;;11.85;;
20794;SDS011;28087;-33.874;151.240;2023-09-12T16:39:45;14.10;;;10.98;;
20794;SDS011;28087;-33.874;151.240;2023-09-12T16:42:52;15.63;;;11.88;;
20794;SDS011;28087;-33.874;151.240;2023-09-12T16:45:59;16.23;;;11.43;;
20794;SDS011;28087;-33.874;151.240;2023-09-12T16:49:09;15.45;;;11.50;;
20794;SDS011;28087;-33.874;151.240;2023-09-12T16:52:17;17.95;;;12.88;;
20794;SDS011;28087;-33.874;151.240;2023-09-12T16:55:25;17.92;;;12.70;;
20794;SDS011;28087;-33.874;151.240;2023-09-12T16:58:31;15.68;;;12.40;;
20794;SDS011;28087;-33.874;151.240;2023-09-12T17:01:38;18.02;;;12.90;;
20794;SDS011;28087;-33.874;151.240;2023-09-12T17:05:01;15.77;;;12.20;;
20794;SDS011;28087;-33.874;151.240;2023-09-12T17:08:07;14.50;;;12.07;;
20794;SDS011;28087;-33.874;151.240;2023-09-12T17:11:17;15.73;;;12.10;;
20794;SDS011;28087;-33.874;151.240;2023-09-12T17:14:28;15.52;;;12.50;;
20794;SDS011;28087;-33.874;151.240;2023-09-12T17:17:35;14.65;;;11.90;;
20794;SDS011;28087;-33.874;151.240;2023-09-12T17:20:49;16.42;;;12.10;;
20794;SDS011;28087;-33.874;151.240;2023-09-12T17:23:55;13.57;;;11.45;;
20794;SDS011;28087;-33.874;151.240;2023-09-12T17:27:12;15.88;;;12.07;;
20794;SDS011;28087;-33.874;151.240;2023-09-12T17:30:36;16.05;;;11.77;;
20794;SDS011;28087;-33.874;151.240;2023-09-12T17:33:51;15.95;;;11.88;;
20794;SDS011;28087;-33.874;151.240;2023-09-12T17:37:00;17.23;;;12.00;;
20794;SDS011;28087;-33.874;151.240;2023-09-12T17:40:07;16.40;;;12.13;;
20794;SDS011;28087;-33.874;151.240;2023-09-12T17:43:13;15.25;;;11.90;;
20794;SDS011;28087;-33.874;151.240;2023-09-12T17:46:25;16.58;;;12.57;;
20794;SDS011;28087;-33.874;151.240;2023-09-12T17:49:46;14.75;;;12.63;;
20794;SDS011;28087;-33.874;151.240;2023-09-12T17:52:56;20.45;;;13.07;;
20794;SDS011;28087;-33.874;151.240;2023-09-12T17:56:06;17.40;;;13.10;;
20794;SDS011;28087;-33.874;151.240;2023-09-12T17:59:13;16.90;;;13.00;;